Time;durP1;ratioP1;P1;durP2;ratioP2;P2;SDS_P1;SDS_P2;PMS_P1;PMS_P2;Temp;Humidity;BMP_temperature;BMP_pressure;BME280_temperature;BME280_humidity;BME280_pressure;Samples;Min_cycle;Max_cycle;Signal;HPM_P1;HPM_P2
2021/01/27 00:01:29;;;;;;;1.10;0.80;;;;;;;-0.30;100.00;98969.97;5011987;28;20057;-63
2021/01/27 00:04:15;;;;;;;1.08;0.77;;;;;;;-0.32;100.00;98966.66;5012659;28;20053;-63
2021/01/27 00:07:00;;;;;;;1.17;0.80;;;;;;;-0.32;100.00;98966.66;5012470;28;20101;-62
2021/01/27 00:09:56;;;;;;;1.20;0.75;;;;;;;-0.30;100.00;98964.84;5124489;27;835655;-63
2021/01/27 00:12:41;;;;;;;1.77;1.08;;;;;;;-0.32;100.00;98958.97;5129691;28;20051;-63
2021/01/27 00:15:36;;;;;;;2.45;1.00;;;;;;;-0.31;100.00;98960.63;5128658;28;20131;-63
2021/01/27 00:18:21;;;;;;;1.83;1.27;;;;;;;-0.32;100.00;98958.13;5123814;28;20043;-63
2021/01/27 00:21:06;;;;;;;2.60;1.50;;;;;;;-0.30;100.00;98952.00;5126733;28;20042;-63
2021/01/27 00:23:51;;;;;;;2.28;1.27;;;;;;;-0.29;100.00;98950.25;5128237;28;20054;-64
2021/01/27 00:26:36;;;;;;;2.15;1.15;;;;;;;-0.30;100.00;98949.44;5129672;28;20518;-63
2021/01/27 00:29:21;;;;;;;2.78;1.70;;;;;;;-0.29;100.00;98945.94;5129571;28;20050;-63
2021/01/27 00:32:06;;;;;;;1.98;1.20;;;;;;;-0.31;100.00;98937.50;5108701;28;20055;-63
2021/01/27 00:34:51;;;;;;;2.22;1.15;;;;;;;-0.29;100.00;98943.38;5126734;28;20050;-64
2021/01/27 00:37:37;;;;;;;2.10;1.20;;;;;;;-0.29;100.00;98938.25;5129296;28;20051;-63
2021/01/27 00:40:23;;;;;;;1.50;0.90;;;;;;;-0.27;100.00;98938.19;5129177;28;20176;-63
2021/01/27 00:43:08;;;;;;;4.43;1.55;;;;;;;-0.28;100.00;98939.94;5128706;28;20043;-63
2021/01/27 00:45:53;;;;;;;2.15;1.02;;;;;;;-0.27;100.00;98939.03;5129357;28;20038;-63
2021/01/27 00:48:38;;;;;;;2.22;1.48;;;;;;;-0.29;100.00;98938.25;5128995;28;20058;-63
2021/01/27 00:51:26;;;;;;;2.95;1.30;;;;;;;-0.27;100.00;98933.06;5129677;28;20181;-63
2021/01/27 00:54:12;;;;;;;7.75;2.80;;;;;;;-0.28;100.00;98921.94;5127638;28;20054;-63
2021/01/27 00:56:58;;;;;;;3.30;1.30;;;;;;;-0.29;100.00;98922.00;5128152;28;20055;-65
2021/01/27 00:59:43;;;;;;;2.25;1.30;;;;;;;-0.28;100.00;98921.94;5128516;28;20180;-65
2021/01/27 01:02:28;;;;;;;2.72;1.38;;;;;;;-0.27;100.00;98918.47;5128369;28;20043;-64
2021/01/27 01:05:19;;;;;;;4.80;1.80;;;;;;;-0.27;100.00;98917.63;5127587;28;20050;-63
2021/01/27 01:08:06;;;;;;;2.13;1.20;;;;;;;-0.29;100.00;98922.84;5125446;28;20402;-63
2021/01/27 01:10:53;;;;;;;3.95;1.83;;;;;;;-0.27;100.00;98912.50;5122648;28;20563;-63
2021/01/27 01:13:38;;;;;;;2.45;1.00;;;;;;;-0.28;100.00;98913.41;5125552;28;20144;-64
2021/01/27 01:16:23;;;;;;;5.78;1.63;;;;;;;-0.28;100.00;98910.84;5116412;28;20070;-63
2021/01/27 01:19:09;;;;;;;1.85;0.93;;;;;;;-0.29;100.00;98904.84;5115014;28;20055;-63
2021/01/27 01:21:57;;;;;;;3.30;1.42;;;;;;;-0.29;100.00;98906.59;5085589;28;20054;-63
2021/01/27 01:24:42;;;;;;;4.35;1.73;;;;;;;-0.29;100.00;98912.56;5084400;28;20058;-63
2021/01/27 01:27:27;;;;;;;2.53;1.40;;;;;;;-0.29;100.00;98904.03;5082970;28;20453;-63
2021/01/27 01:30:20;;;;;;;3.05;1.25;;;;;;;-0.29;100.00;98904.03;5098292;28;20054;-63
2021/01/27 01:33:11;;;;;;;3.78;1.80;;;;;;;-0.29;100.00;98902.28;5081468;28;20051;-63
2021/01/27 01:35:58;;;;;;;3.50;1.20;;;;;;;-0.29;100.00;98896.31;5081485;28;20063;-63
2021/01/27 01:38:44;;;;;;;2.08;1.13;;;;;;;-0.29;100.00;98902.28;5079819;28;20047;-64
2021/01/27 01:41:29;;;;;;;3.08;1.30;;;;;;;-0.29;100.00;98897.16;5078853;28;20051;-64
2021/01/27 01:44:15;;;;;;;1.60;0.82;;;;;;;-0.28;100.00;98903.13;5105042;28;20055;-64
2021/01/27 01:47:00;;;;;;;2.17;1.13;;;;;;;-0.32;100.00;98892.19;5100720;28;20051;-63
2021/01/27 01:49:45;;;;;;;5.65;2.35;;;;;;;-0.29;100.00;98886.03;5082797;28;20848;-65
2021/01/27 01:52:30;;;;;;;4.30;1.90;;;;;;;-0.32;100.00;98881.91;5104961;28;20066;-63
2021/01/27 01:55:16;;;;;;;2.63;1.40;;;;;;;-0.30;100.00;98882.66;5107343;28;20069;-64
2021/01/27 01:58:03;;;;;;;3.17;1.42;;;;;;;-0.29;100.00;98880.91;5107957;28;20121;-63
2021/01/27 02:00:52;;;;;;;3.78;1.65;;;;;;;-0.30;100.00;98869.81;5105473;28;20509;-63
2021/01/27 02:03:39;;;;;;;3.63;1.75;;;;;;;-0.30;100.00;98868.97;5105679;28;20070;-63
2021/01/27 02:06:25;;;;;;;3.00;1.60;;;;;;;-0.29;100.00;98868.88;5105604;28;20055;-63
2021/01/27 02:09:10;;;;;;;2.85;1.40;;;;;;;-0.30;100.00;98863.84;5105287;28;20460;-63
2021/01/27 02:12:15;;;;;;;3.28;1.40;;;;;;;-0.29;100.00;98868.06;5103774;28;20055;-63
2021/01/27 02:15:03;;;;;;;2.25;1.15;;;;;;;-0.29;100.00;98858.63;5104595;28;20131;-63
2021/01/27 02:17:59;;;;;;;4.30;1.50;;;;;;;-0.29;100.00;98860.34;5084106;28;20421;-62
2021/01/27 02:20:45;;;;;;;3.28;1.60;;;;;;;-0.29;100.00;98860.34;5098083;28;20050;-62
2021/01/27 02:24:11;;;;;;;8.38;2.22;;;;;;;-0.28;100.00;98856.91;5101625;28;20457;-63
2021/01/27 02:27:11;;;;;;;2.50;1.33;;;;;;;-0.30;100.00;98859.53;5102303;28;20517;-63
2021/01/27 02:29:59;;;;;;;6.65;2.42;;;;;;;-0.29;100.00;98857.78;5102319;28;20050;-63
2021/01/27 02:33:12;;;;;;;4.10;1.90;;;;;;;-0.29;100.00;98848.34;5102712;28;20540;-62
2021/01/27 02:36:16;;;;;;;3.67;1.67;;;;;;;-0.29;100.00;98850.09;5103667;28;20188;-63
2021/01/27 02:39:09;;;;;;;2.92;1.60;;;;;;;-0.32;100.00;98843.38;5106455;28;20050;-63
2021/01/27 02:42:03;;;;;;;2.08;1.15;;;;;;;-0.30;100.00;98846.69;5106737;28;20058;-62
2021/01/27 02:45:08;;;;;;;5.38;2.40;;;;;;;-0.29;100.00;98855.22;5082355;28;20055;-62
2021/01/27 02:48:00;;;;;;;4.82;2.47;;;;;;;-0.29;100.00;98847.50;5105860;28;20078;-62
2021/01/27 02:50:54;;;;;;;2.25;1.27;;;;;;;-0.31;100.00;98854.47;5106495;28;20074;-62
2021/01/27 02:53:46;;;;;;;2.72;1.48;;;;;;;-0.33;100.00;98846.03;5107287;28;20078;-62
2021/01/27 02:56:38;;;;;;;3.78;1.83;;;;;;;-0.30;100.00;98848.44;5108281;28;20051;-62
2021/01/27 02:59:49;;;;;;;3.80;1.08;;;;;;;-0.29;100.00;98843.19;5107249;28;20053;-62
2021/01/27 03:02:44;;;;;;;2.53;1.33;;;;;;;-0.29;100.00;98838.06;5105641;28;20880;-62
2021/01/27 03:05:43;;;;;;;5.10;2.28;;;;;;;-0.28;100.00;98833.78;5103716;28;20143;-62
2021/01/27 03:08:36;;;;;;;2.65;1.50;;;;;;;-0.30;100.00;98836.41;5105823;28;20593;-63
2021/01/27 03:11:33;;;;;;;3.45;1.80;;;;;;;-0.29;100.00;98830.34;5110683;28;20058;-62
2021/01/27 03:14:19;;;;;;;2.75;1.10;;;;;;;-0.31;100.00;98828.78;5112207;28;20051;-62
2021/01/27 03:17:17;;;;;;;2.25;1.05;;;;;;;-0.29;100.00;98824.41;5097910;28;20162;-60
2021/01/27 03:20:21;;;;;;;1.83;0.93;;;;;;;-0.31;100.00;98818.53;5108652;28;20063;-62
2021/01/27 03:23:17;;;;;;;2.05;1.30;;;;;;;-0.31;100.00;98818.53;5108408;28;20047;-61
2021/01/27 03:26:20;;;;;;;2.90;1.20;;;;;;;-0.33;100.00;98812.66;5096884;28;20042;-61
2021/01/27 03:29:12;;;;;;;4.63;2.13;;;;;;;-0.33;100.00;98815.22;5100697;28;20059;-61
2021/01/27 03:32:01;;;;;;;6.53;2.10;;;;;;;-0.37;100.00;98808.56;5091988;28;20043;-62
2021/01/27 03:34:53;;;;;;;2.40;1.48;;;;;;;-0.33;100.00;98813.47;5109427;28;20418;-63
2021/01/27 03:38:00;;;;;;;2.58;1.23;;;;;;;-0.34;100.00;98803.25;5112634;28;20541;-62
2021/01/27 03:40:47;;;;;;;4.43;1.52;;;;;;;-0.33;100.00;98805.75;5112375;28;20043;-62
2021/01/27 03:43:44;;;;;;;2.45;1.13;;;;;;;-0.32;100.00;98809.16;5111675;28;20149;-62
2021/01/27 03:46:54;;;;;;;3.25;1.33;;;;;;;-0.31;100.00;98803.09;5112359;28;20046;-62
2021/01/27 03:49:54;;;;;;;2.88;1.50;;;;;;;-0.33;100.00;98799.81;5111779;28;20655;-62
2021/01/27 03:53:04;;;;;;;2.25;1.00;;;;;;;-0.30;100.00;98802.19;5111655;28;20498;-62
2021/01/27 03:55:57;;;;;;;1.48;1.02;;;;;;;-0.31;100.00;98793.66;5100630;28;20055;-62
2021/01/27 03:58:45;;;;;;;2.65;1.55;;;;;;;-0.30;100.00;98791.91;5094924;28;20075;-61
2021/01/27 04:01:31;;;;;;;3.53;1.38;;;;;;;-0.30;100.00;98795.31;5110535;28;20042;-62
2021/01/27 04:04:17;;;;;;;2.70;1.17;;;;;;;-0.30;100.00;98789.34;5107198;28;20050;-62
2021/01/27 04:07:02;;;;;;;2.03;1.10;;;;;;;-0.31;100.00;98793.66;5107299;28;20185;-61
2021/01/27 04:09:47;;;;;;;1.75;1.00;;;;;;;-0.30;100.00;98786.78;5109424;28;20562;-61
2021/01/27 04:12:32;;;;;;;1.63;1.00;;;;;;;-0.34;100.00;98782.72;5110091;28;20525;-62
2021/01/27 04:15:17;;;;;;;1.92;1.10;;;;;;;-0.33;100.00;98774.94;5110474;28;20062;-61
2021/01/27 04:18:03;;;;;;;2.03;0.85;;;;;;;-0.30;100.00;98777.34;5092118;28;20047;-62
2021/01/27 04:20:48;;;;;;;1.98;1.10;;;;;;;-0.30;100.00;98771.38;5089503;28;20095;-62
2021/01/27 04:23:33;;;;;;;1.38;0.80;;;;;;;-0.32;100.00;98768.88;5089576;28;20100;-63
2021/01/27 04:26:19;;;;;;;2.15;0.77;;;;;;;-0.29;100.00;98765.31;5090540;28;20051;-62
2021/01/27 04:29:05;;;;;;;4.20;1.30;;;;;;;-0.28;100.00;98762.69;5090277;28;20063;-61
2021/01/27 04:31:50;;;;;;;6.63;1.70;;;;;;;-0.28;100.00;98761.88;5090739;28;20596;-61
2021/01/27 04:34:35;;;;;;;5.95;1.58;;;;;;;-0.29;100.00;98762.75;5108391;28;20066;-62
2021/01/27 04:37:20;;;;;;;2.35;1.27;;;;;;;-0.29;100.00;98766.16;5111102;28;20054;-62
2021/01/27 04:40:09;;;;;;;23.65;2.78;;;;;;;-0.29;100.00;98762.75;5111294;28;20046;-62
2021/01/27 04:42:55;;;;;;;13.15;2.88;;;;;;;-0.30;100.00;98761.91;5108211;28;20047;-61
2021/01/27 04:45:46;;;;;;;3.42;1.80;;;;;;;-0.29;100.00;98753.31;5109035;28;20059;-62
2021/01/27 04:48:51;;;;;;;3.63;1.67;;;;;;;-0.26;100.00;98753.16;5109378;28;20059;-62
2021/01/27 04:51:53;;;;;;;3.45;2.05;;;;;;;-0.27;100.00;98745.53;5111014;28;20068;-62
2021/01/27 04:54:48;;;;;;;7.10;1.67;;;;;;;-0.26;100.00;98742.06;5091173;28;20051;-63
2021/01/27 04:57:49;;;;;;;3.28;1.77;;;;;;;-0.26;100.00;98747.19;5115542;28;20120;-62
2021/01/27 05:01:23;;;;;;;2.85;1.50;;;;;;;-0.26;100.00;98742.06;5114920;28;20060;-61
2021/01/27 05:04:25;;;;;;;4.10;1.67;;;;;;;-0.27;100.00;98740.41;5092505;28;20172;-62
2021/01/27 05:07:14;;;;;;;10.60;1.95;;;;;;;-0.28;100.00;98739.56;5114824;28;20050;-65
2021/01/27 05:10:04;;;;;;;19.05;3.30;;;;;;;-0.27;100.00;98737.84;5114679;28;20074;-62
2021/01/27 05:12:59;;;;;;;5.03;1.58;;;;;;;-0.26;100.00;98742.88;5115099;28;20627;-62
2021/01/27 05:15:44;;;;;;;30.75;3.53;;;;;;;-0.29;100.00;98737.88;5114253;28;20422;-63
2021/01/27 05:18:29;;;;;;;16.45;2.55;;;;;;;-0.28;100.00;98733.59;5114476;28;20054;-62
2021/01/27 05:21:26;;;;;;;13.43;2.90;;;;;;;-0.28;100.00;98733.59;5101737;28;20043;-63
2021/01/27 05:24:12;;;;;;;8.48;2.10;;;;;;;-0.28;100.00;98729.31;5115389;28;20059;-61
2021/01/27 05:27:08;;;;;;;3.20;1.58;;;;;;;-0.27;100.00;98732.69;5115232;28;20143;-61
2021/01/27 05:30:02;;;;;;;2.38;1.38;;;;;;;-0.28;100.00;98731.03;5115140;28;20054;-61
2021/01/27 05:32:56;;;;;;;4.25;1.58;;;;;;;-0.27;100.00;98727.56;5115502;28;20066;-62
2021/01/27 05:35:41;;;;;;;10.95;1.73;;;;;;;-0.27;100.00;98727.56;5114372;28;20528;-62
2021/01/27 05:38:32;;;;;;;4.10;1.40;;;;;;;-0.26;100.00;98730.03;5114653;28;20052;-62
2021/01/27 05:41:28;;;;;;;5.03;1.30;;;;;;;-0.24;100.00;98726.56;5114731;28;20046;-62
2021/01/27 05:44:15;;;;;;;2.47;1.30;;;;;;;-0.27;100.00;98723.25;5114155;28;20132;-62
2021/01/27 05:47:23;;;;;;;11.30;2.60;;;;;;;-0.26;100.00;98724.06;5109207;28;20063;-62
2021/01/27 05:50:18;;;;;;;1.73;0.90;;;;;;;-0.28;100.00;98723.34;5093493;28;20130;-62
2021/01/27 05:53:22;;;;;;;41.03;4.22;;;;;;;-0.31;100.00;98719.19;5112049;28;20059;-62
2021/01/27 05:56:15;;;;;;;2.83;1.50;;;;;;;-0.29;100.00;98711.38;5113503;28;20057;-61
2021/01/27 05:59:07;;;;;;;2.75;1.42;;;;;;;-0.29;100.00;98716.50;5113685;28;20058;-62
2021/01/27 06:01:59;;;;;;;2.53;1.30;;;;;;;-0.28;100.00;98719.03;5113671;28;20055;-63
2021/01/27 06:04:57;;;;;;;4.25;1.63;;;;;;;-0.27;100.00;98707.84;5093624;28;20410;-62
2021/01/27 06:07:42;;;;;;;3.03;1.60;;;;;;;-0.29;100.00;98712.22;5110378;28;20112;-62
2021/01/27 06:10:28;;;;;;;2.22;1.23;;;;;;;-0.28;100.00;98716.47;5111928;28;20050;-62
2021/01/27 06:13:17;;;;;;;4.20;1.67;;;;;;;-0.27;100.00;98701.88;5111217;28;20162;-62
2021/01/27 06:16:22;;;;;;;4.80;1.70;;;;;;;-0.26;100.00;98708.66;5105340;28;20128;-63
2021/01/27 06:19:20;;;;;;;2.40;1.13;;;;;;;-0.26;100.00;98708.66;5088470;28;20059;-62
2021/01/27 06:22:15;;;;;;;3.25;1.58;;;;;;;-0.28;100.00;98710.50;5092157;28;20066;-62
2021/01/27 06:25:07;;;;;;;2.28;0.93;;;;;;;-0.29;100.00;98709.63;5092183;28;20137;-62
2021/01/27 06:28:13;;;;;;;4.35;1.83;;;;;;;-0.27;100.00;98707.84;5110911;28;20055;-61
2021/01/27 06:31:31;;;;;;;3.63;1.70;;;;;;;-0.29;100.00;98707.06;5111612;28;20078;-62
2021/01/27 06:34:43;;;;;;;2.08;1.20;;;;;;;-0.28;100.00;98710.50;5092275;28;20047;-61
2021/01/27 06:37:56;;;;;;;2.05;1.15;;;;;;;-0.28;100.00;98706.19;5112609;28;20062;-63
2021/01/27 06:41:20;;;;;;;2.78;1.42;;;;;;;-0.28;100.00;98700.22;5092757;28;20055;-63
2021/01/27 06:44:19;;;;;;;3.17;1.42;;;;;;;-0.30;100.00;98705.41;5112908;28;20055;-62
2021/01/27 06:47:13;;;;;;;6.43;2.65;;;;;;;-0.31;100.00;98700.38;5113152;28;20077;-61
2021/01/27 06:50:10;;;;;;;;;;;;;;;-0.32;100.00;98693.59;5112555;28;20204;-61
2021/01/27 06:53:46;;;;;;;5.35;2.17;;;;;;;-0.33;100.00;98690.19;5111418;28;19926;-62
2021/01/27 06:56:36;;;;;;;3.28;1.58;;;;;;;-0.35;100.00;98694.56;5028759;28;20060;-62
2021/01/27 06:59:47;;;;;;;4.95;2.72;;;;;;;-0.31;100.00;98687.53;5030415;28;20080;-62
2021/01/27 07:03:03;;;;;;;7.20;3.15;;;;;;;-0.30;100.00;98695.13;5105144;28;20055;-62
2021/01/27 07:06:00;;;;;;;5.03;2.55;;;;;;;-0.29;100.00;98680.56;5113023;28;20173;-63
2021/01/27 07:08:46;;;;;;;4.10;1.88;;;;;;;-0.29;100.00;98686.53;5112192;28;20058;-62
2021/01/27 07:11:57;;;;;;;4.82;2.30;;;;;;;-0.26;100.00;98694.06;5112068;28;20135;-62
2021/01/27 07:15:05;;;;;;;13.98;2.80;;;;;;;-0.26;100.00;98685.53;5110109;28;20105;-62
2021/01/27 07:18:09;;;;;;;;;;;;;;;-0.29;100.00;98681.38;5068606;28;20205;-61
2021/01/27 07:21:01;;;;;;;3.15;1.80;;;;;;;-0.28;100.00;98684.81;5108227;28;20028;-62
2021/01/27 07:24:01;;;;;;;4.40;1.98;;;;;;;-0.27;100.00;98683.88;5111921;28;20184;-62
2021/01/27 07:27:02;;;;;;;2.22;1.23;;;;;;;-0.27;100.00;98686.47;5103734;28;20168;-62
2021/01/27 07:29:53;;;;;;;3.95;1.50;;;;;;;-0.26;100.00;98678.66;5089840;28;20063;-61
2021/01/27 07:32:56;;;;;;;4.38;2.17;;;;;;;-0.24;100.00;98676.00;5085733;28;20187;-61
2021/01/27 07:36:03;;;;;;;2.67;1.58;;;;;;;-0.21;100.00;98677.59;5095443;28;20092;-61
2021/01/27 07:38:50;;;;;;;3.00;1.75;;;;;;;-0.18;100.00;98680.00;5103515;28;20199;-61
2021/01/27 07:41:47;;;;;;;3.40;1.50;;;;;;;-0.19;100.00;98678.31;5107936;28;20101;-61
2021/01/27 07:44:33;;;;;;;4.22;1.90;;;;;;;-0.18;100.00;98669.72;5110509;28;20055;-61
2021/01/27 07:47:34;;;;;;;3.17;1.60;;;;;;;-0.15;100.00;98666.97;5111795;28;20129;-61
2021/01/27 07:50:21;;;;;;;2.47;1.30;;;;;;;-0.14;100.00;98668.63;5111567;28;20058;-61
2021/01/27 07:53:17;;;;;;;3.55;1.88;;;;;;;-0.11;100.00;98669.31;5091289;28;20059;-60
2021/01/27 07:56:09;;;;;;;3.13;1.85;;;;;;;-0.09;100.00;98667.50;5107105;28;20055;-62
2021/01/27 07:59:09;;;;;;;3.95;1.80;;;;;;;-0.08;100.00;98661.44;5108670;28;20452;-61
2021/01/27 08:02:23;;;;;;;2.70;1.50;;;;;;;-0.05;100.00;98656.16;5100208;28;20059;-61
2021/01/27 08:05:10;;;;;;;4.15;2.22;;;;;;;0.00;100.00;98663.59;5092190;28;20189;-61
2021/01/27 08:08:05;;;;;;;5.40;2.33;;;;;;;0.02;100.00;98661.78;5089192;28;21385;-61
2021/01/27 08:10:52;;;;;;;3.58;1.67;;;;;;;0.03;100.00;98663.41;5098321;28;20063;-61
2021/01/27 08:13:41;;;;;;;2.35;1.25;;;;;;;0.05;100.00;98661.63;5103303;28;20188;-61
2021/01/27 08:16:38;;;;;;;3.53;2.05;;;;;;;0.07;100.00;98658.94;5092868;28;20533;-61
2021/01/27 08:19:30;;;;;;;1.98;1.23;;;;;;;0.09;100.00;98652.78;5085243;28;20055;-61
2021/01/27 08:22:46;;;;;;;3.75;2.00;;;;;;;0.14;100.00;98657.69;5103724;28;20046;-61
2021/01/27 08:25:50;;;;;;;2.63;1.48;;;;;;;0.12;99.99;98659.53;5108370;28;20054;-61
2021/01/27 08:28:39;;;;;;;3.38;1.98;;;;;;;0.13;100.00;98648.31;5109712;28;20054;-60
2021/01/27 08:31:24;;;;;;;1.95;1.10;;;;;;;0.10;100.00;98653.66;5112586;28;20053;-60
2021/01/27 08:34:42;;;;;;;1.55;0.90;;;;;;;0.14;100.00;98653.41;5114158;28;20116;-61
2021/01/27 08:37:30;;;;;;;1.75;1.10;;;;;;;0.16;100.00;98653.31;5115455;28;20067;-61
2021/01/27 08:40:31;;;;;;;2.20;1.10;;;;;;;0.16;100.00;98653.31;5115130;28;20158;-61
2021/01/27 08:43:17;;;;;;;1.58;1.00;;;;;;;0.19;100.00;98646.25;5113461;28;20161;-61
2021/01/27 08:46:26;;;;;;;1.10;0.80;;;;;;;0.18;99.21;98649.72;5113238;28;20055;-61
2021/01/27 08:49:36;;;;;;;0.73;0.68;;;;;;;0.26;99.42;98641.59;5112458;28;20139;-60
2021/01/27 08:52:21;;;;;;;1.05;0.50;;;;;;;0.30;99.45;98658.50;5112860;28;20092;-61
2021/01/27 08:55:34;;;;;;;0.57;0.43;;;;;;;0.33;99.90;98654.91;5115616;28;20058;-60
2021/01/27 08:58:39;;;;;;;0.80;0.70;;;;;;;0.35;99.84;98650.53;5115150;28;20054;-61
2021/01/27 09:01:24;;;;;;;1.13;0.55;;;;;;;0.37;98.74;98654.66;5114275;28;20116;-61
2021/01/27 09:04:09;;;;;;;1.02;0.70;;;;;;;0.41;99.44;98648.44;5114831;28;20536;-60
2021/01/27 09:07:04;;;;;;;1.13;0.60;;;;;;;0.43;99.41;98654.34;5112680;28;20054;-61
2021/01/27 09:09:49;;;;;;;1.02;0.60;;;;;;;0.40;98.42;98648.53;5113211;28;20580;-60
2021/01/27 09:12:34;;;;;;;1.02;0.47;;;;;;;0.41;98.48;98648.44;5112994;28;20047;-60
2021/01/27 09:15:28;;;;;;;1.33;0.80;;;;;;;0.45;98.28;98642.22;5113588;28;20046;-61
2021/01/27 09:18:13;;;;;;;0.68;0.50;;;;;;;0.45;98.75;98641.38;5093843;28;20051;-62
2021/01/27 09:21:17;;;;;;;0.50;0.50;;;;;;;0.51;99.22;98641.03;5102671;28;20055;-62
2021/01/27 09:24:09;;;;;;;1.03;0.60;;;;;;;0.46;98.19;98646.44;5094447;28;20059;-61
2021/01/27 09:26:56;;;;;;;0.55;0.40;;;;;;;0.46;98.37;98637.91;5094376;28;20510;-61
2021/01/27 09:29:41;;;;;;;1.02;0.73;;;;;;;0.49;98.85;98636.00;5113072;28;20050;-61
2021/01/27 09:32:29;;;;;;;0.68;0.68;;;;;;;0.49;98.54;98638.56;5114101;28;20141;-61
2021/01/27 09:35:21;;;;;;;0.77;0.60;;;;;;;0.52;98.46;98640.13;5114650;28;20394;-61
2021/01/27 10:52:24;;;;;;;0.40;0.40;;;;;;;0.08;99.02;98606.63;4960433;28;20351;-61
2021/01/27 10:55:11;;;;;;;0.40;0.40;;;;;;;0.06;99.23;98608.47;4964781;28;20062;-64
2021/01/27 10:58:03;;;;;;;0.43;0.40;;;;;;;0.03;99.55;98608.63;4965148;28;20050;-60
2021/01/27 11:00:49;;;;;;;0.57;0.57;;;;;;;-0.01;100.00;98613.94;4963910;28;20061;-60
2021/01/27 11:03:34;;;;;;;1.73;0.50;;;;;;;-0.03;100.00;98607.22;4964550;28;20054;-61
2021/01/27 11:06:19;;;;;;;0.65;0.50;;;;;;;0.00;99.62;98609.63;4964333;28;20136;-61
2021/01/27 11:09:05;;;;;;;0.70;0.60;;;;;;;0.01;100.00;98615.59;4964488;28;20420;-63
2021/01/27 11:11:51;;;;;;;0.50;0.50;;;;;;;-0.03;100.00;98604.66;4965209;28;20128;-61
2021/01/27 11:14:36;;;;;;;0.60;0.50;;;;;;;-0.02;100.00;98611.44;4964654;28;20460;-61
2021/01/27 11:17:21;;;;;;;0.63;0.60;;;;;;;-0.05;99.97;98609.03;4964444;28;20201;-61
2021/01/27 11:20:07;;;;;;;0.75;0.70;;;;;;;-0.03;99.90;98607.22;4964654;28;20054;-62
2021/01/27 11:22:54;;;;;;;0.70;0.60;;;;;;;-0.02;100.00;98604.56;4964676;28;20054;-61
2021/01/27 11:25:39;;;;;;;0.52;0.50;;;;;;;0.00;100.00;98604.50;4962906;28;20140;-61
2021/01/27 11:28:27;;;;;;;0.80;0.57;;;;;;;0.01;99.87;98601.00;4965196;28;20050;-62
2021/01/27 11:31:13;;;;;;;0.60;0.57;;;;;;;0.04;99.63;98595.69;4965799;28;20054;-62
2021/01/27 11:33:58;;;;;;;0.60;0.50;;;;;;;0.03;100.00;98601.75;4966041;28;20073;-61
2021/01/27 11:36:44;;;;;;;0.40;0.40;;;;;;;0.08;99.50;98596.34;4965046;28;20113;-62
2021/01/27 11:39:30;;;;;;;0.47;0.47;;;;;;;0.06;100.00;98604.16;4963133;28;20049;-62
2021/01/27 11:42:14;;;;;;;0.60;0.60;;;;;;;0.05;99.36;98604.22;4963128;28;20066;-62
2021/01/27 11:45:00;;;;;;;0.93;0.50;;;;;;;0.06;99.69;98601.59;4961013;28;20054;-62
2021/01/27 11:47:45;;;;;;;0.90;0.60;;;;;;;-0.08;100.00;98604.91;4964016;28;20184;-62
2021/01/27 11:50:31;;;;;;;0.75;0.52;;;;;;;-0.02;100.00;98598.59;4965441;28;20185;-61
2021/01/27 11:53:16;;;;;;;0.50;0.50;;;;;;;0.03;99.41;98600.91;4953061;28;20054;-62
2021/01/27 11:56:02;;;;;;;546.63;165.52;;;;;;;0.03;99.59;98604.31;4952517;29;20087;-62
2021/01/27 11:58:47;;;;;;;47.40;14.25;;;;;;;0.02;99.71;98599.28;4952902;29;20061;-61
2021/01/27 12:01:35;;;;;;;80.70;39.85;;;;;;;0.06;99.60;98599.00;4952937;29;20070;-62
2021/01/27 12:04:20;;;;;;;14.77;7.25;;;;;;;0.05;99.68;98602.50;4952686;29;20051;-62
2021/01/27 12:07:06;;;;;;;3.15;1.58;;;;;;;0.09;100.00;98600.56;4952501;29;20054;-63
2021/01/27 12:09:51;;;;;;;1.10;0.77;;;;;;;0.11;99.85;98602.16;4952938;29;20133;-62
2021/01/27 12:12:37;;;;;;;4.10;2.30;;;;;;;0.15;99.77;98603.66;4952071;29;20058;-62
2021/01/27 12:15:23;;;;;;;25.58;19.60;;;;;;;0.17;98.97;98604.38;4952748;29;20122;-62
2021/01/27 12:18:11;;;;;;;4.93;3.67;;;;;;;0.15;100.00;98603.66;4952554;29;20054;-62
2021/01/27 12:20:57;;;;;;;1.83;1.20;;;;;;;0.17;99.56;98611.25;4952369;29;20129;-62
2021/01/27 12:23:42;;;;;;;2.05;1.40;;;;;;;0.19;99.79;98604.28;4951200;29;20101;-63
2021/01/27 12:26:27;;;;;;;1.50;1.00;;;;;;;0.13;99.69;98609.75;4952643;28;20136;-62
2021/01/27 12:29:12;;;;;;;2.45;1.65;;;;;;;0.10;99.68;98609.97;4952172;29;20071;-63
2021/01/27 12:31:58;;;;;;;1.25;0.88;;;;;;;0.09;99.80;98619.38;4952358;29;20063;-63
2021/01/27 12:34:43;;;;;;;0.93;0.70;;;;;;;0.05;99.03;98611.94;4952600;29;20125;-63
2021/01/27 12:37:28;;;;;;;5.13;4.43;;;;;;;0.00;99.19;98612.22;4952497;29;20185;-62
2021/01/27 12:40:16;;;;;;;1.15;0.90;;;;;;;0.04;99.96;98618.81;4952608;29;20121;-62
2021/01/27 12:43:02;;;;;;;0.68;0.55;;;;;;;0.04;99.27;98618.81;4952545;29;20453;-62
2021/01/27 12:45:47;;;;;;;0.60;0.60;;;;;;;0.03;99.34;98621.47;4951906;29;20058;-63
2021/01/27 12:48:32;;;;;;;0.70;0.70;;;;;;;-0.04;99.52;98615.84;4952103;29;20058;-61
2021/01/27 12:51:18;;;;;;;0.52;0.52;;;;;;;-0.03;99.49;98617.50;4949534;29;20066;-62
2021/01/27 12:54:02;;;;;;;0.50;0.50;;;;;;;-0.13;99.80;98612.06;4949777;29;20782;-62
2021/01/27 12:56:50;;;;;;;0.55;0.40;;;;;;;-0.12;100.00;98618.84;4951851;29;20105;-63
2021/01/27 12:59:36;;;;;;;0.50;0.50;;;;;;;-0.16;100.00;98621.66;4952534;29;20138;-63
2021/01/27 13:02:21;;;;;;;0.60;0.60;;;;;;;-0.19;100.00;98625.25;4951851;29;20153;-62
2021/01/27 13:05:06;;;;;;;0.60;0.40;;;;;;;-0.21;100.00;98621.06;4951251;29;20429;-62
2021/01/27 13:07:51;;;;;;;0.55;0.50;;;;;;;-0.20;100.00;98621.00;4952125;29;20046;-61
2021/01/27 13:10:41;;;;;;;0.47;0.40;;;;;;;-0.26;100.00;98622.16;4952108;29;20055;-62
2021/01/27 13:13:26;;;;;;;0.55;0.50;;;;;;;-0.24;100.00;98623.81;4951845;29;20065;-62
2021/01/27 13:16:11;;;;;;;0.30;0.30;;;;;;;-0.27;100.00;98625.63;4952099;29;20148;-62
2021/01/27 13:18:57;;;;;;;0.45;0.45;;;;;;;-0.28;100.00;98624.00;4952196;29;20078;-61
2021/01/27 13:21:43;;;;;;;0.40;0.38;;;;;;;-0.31;100.00;98623.31;4951711;29;20624;-62
2021/01/27 13:24:28;;;;;;;0.52;0.52;;;;;;;-0.33;100.00;98620.00;4952057;29;20136;-62
2021/01/27 13:27:14;;;;;;;0.50;0.50;;;;;;;-0.42;100.00;98623.91;4952282;29;20125;-62
2021/01/27 13:30:00;;;;;;;0.50;0.50;;;;;;;-0.36;100.00;98622.75;4951679;29;20426;-63
2021/01/27 13:32:45;;;;;;;1.20;0.80;;;;;;;-0.37;100.00;98627.03;4951785;29;20061;-62
2021/01/27 13:35:31;;;;;;;1.23;0.90;;;;;;;-0.36;100.00;98625.31;4950781;29;20441;-61
2021/01/27 13:38:16;;;;;;;0.93;0.80;;;;;;;-0.40;100.00;98628.94;4951572;29;20058;-62
2021/01/27 13:41:03;;;;;;;0.93;0.63;;;;;;;-0.48;100.00;98631.09;4951490;29;20655;-62
2021/01/27 13:43:48;;;;;;;1.95;0.70;;;;;;;-0.46;100.00;98629.28;4951756;29;20177;-62
2021/01/27 13:46:33;;;;;;;3.25;0.98;;;;;;;-0.56;100.00;98629.75;4951781;29;20058;-61
2021/01/27 13:49:18;;;;;;;3.85;1.60;;;;;;;-0.70;100.00;98641.66;4951473;29;20101;-62
2021/01/27 13:52:04;;;;;;;2.78;1.70;;;;;;;-0.72;100.00;98639.16;4951117;29;20062;-61
2021/01/27 13:54:49;;;;;;;3.42;1.90;;;;;;;-0.74;100.00;98635.03;4951459;29;20054;-62
2021/01/27 13:57:34;;;;;;;2.78;1.60;;;;;;;-0.74;100.00;98637.59;4951436;29;20401;-62
2021/01/27 14:00:21;;;;;;;3.08;1.80;;;;;;;-0.78;100.00;98637.75;4951273;29;20140;-63
2021/01/27 14:03:06;;;;;;;2.67;1.65;;;;;;;-0.79;100.00;98638.66;4951407;29;20054;-62
2021/01/27 14:05:52;;;;;;;3.97;2.00;;;;;;;-0.78;100.00;98637.75;4951034;29;20126;-62
2021/01/27 14:08:37;;;;;;;3.50;1.98;;;;;;;-0.79;100.00;98640.41;4951070;29;20132;-61
2021/01/27 14:11:22;;;;;;;5.20;2.40;;;;;;;-0.87;100.00;98642.53;4950638;29;20062;-62
2021/01/27 14:14:07;;;;;;;4.38;2.40;;;;;;;-0.90;100.00;98648.66;4951207;29;20058;-62
2021/01/27 14:16:52;;;;;;;3.80;2.45;;;;;;;-0.97;100.00;98644.72;4951191;29;20139;-62
2021/01/27 14:19:39;;;;;;;5.28;2.80;;;;;;;-1.00;100.00;98649.19;4950944;29;20058;-62
2021/01/27 14:22:24;;;;;;;6.53;2.97;;;;;;;-1.00;100.00;98649.19;4951140;29;20054;-62
2021/01/27 14:25:12;;;;;;;6.85;3.00;;;;;;;-1.05;100.00;98649.41;4951112;29;20062;-62
2021/01/27 14:27:58;;;;;;;7.10;3.40;;;;;;;-1.13;100.00;98652.38;4951066;29;20058;-61
2021/01/27 14:30:45;;;;;;;5.90;3.08;;;;;;;-1.14;100.00;98652.44;4950675;29;20604;-62
2021/01/27 14:33:30;;;;;;;6.03;2.58;;;;;;;-1.17;100.00;98650.03;4950982;29;20058;-61
2021/01/27 14:36:15;;;;;;;6.03;3.10;;;;;;;-1.15;100.00;98643.91;4950864;29;20608;-61